Maryland METAR Reports


Distance/Direction noted is from Ellicott City, MD as the crow flies

KCBE - Cumberland - 118 miles WNW
Updated: Fri, 08/01/2014 5:40 AM
Clear
Clear
 Wind from calm
Wind: Calm
Temperature: 61°F
Dew Point: 59°F
Humidity: 94%
Barometer: 30.19 inHg
Clouds: Clear
Visibility: 7 miles
2014/08/01 09:40 KCBE 010940Z AUTO 00000KT 7SM CLR 16/15 A3019 RMK AO1
KHGR - Hagerstown - 57 miles NW
Updated: Fri, 08/01/2014 4:53 AM
Clear
Clear
 Wind from WNW
Wind: WNW 3 mph
Temperature: 64°F
Dew Point: 61°F
Humidity: 88%
Barometer: 30.14 inHg
Clouds: Clear
Visibility: 9 miles
2014/08/01 08:53 KHGR 010853Z AUTO 30003KT 9SM CLR 18/16 A3014 RMK AO2 SLP209 T01780156 55001
 
KFDK - Frederick - 34 miles NW
Updated: Fri, 08/01/2014 5:40 AM
Mist, Clear
Mist, Clear
 Wind from calm
Wind: Calm
Temperature: 63°F
Dew Point: 63°F
Humidity: 100%
Barometer: 30.16 inHg
Summary: Mist
Clouds: Clear
Visibility: 3 miles
2014/08/01 09:40 KFDK 010940Z AUTO 00000KT 3SM BR CLR 17/17 A3016 RMK AO2
KGAI - Gaithersburg - 26 miles SW
Updated: Fri, 08/01/2014 5:35 AM
Clear
Clear
 Wind from calm
Wind: Calm
Temperature: 68°F
Dew Point: 64°F
Humidity: 88%
Barometer: 30.18 inHg
Clouds: Clear
Visibility: 10 miles
2014/08/01 09:35 KGAI 010935Z AUTO 00000KT 10SM CLR 20/18 A3018 RMK AO1
 
KBWI - BWI Airport - 15 miles SE
Updated: Fri, 08/01/2014 4:54 AM
Overcast
Overcast
 Wind from calm
Wind: Calm
Temperature: 72°F
Dew Point: 66°F
Humidity: 83%
Barometer: 30.13 inHg
Clouds: Overcast
Visibility: 9 miles
Cloud Details: Few Clouds 10000 ft
Mostly Cloudy 15000 ft
Overcast 20000 ft
2014/08/01 08:54 KBWI 010854Z 00000KT 9SM FEW100 BKN150 OVC200 22/19 A3013 RMK AO2 SLP202 T02170194 58003
KNAK - Annapolis - 32 miles SSE
Updated: Fri, 08/01/2014 4:54 AM
Clear
Clear
 Wind from S
Wind: S 12 mph
Temperature: 73°F
Dew Point: 68°F
Humidity: 83%
Barometer: 30.13 inHg
Clouds: Clear
Visibility: 9 miles
2014/08/01 08:54 KNAK 010854Z AUTO 18010KT 9SM CLR 23/20 A3013 RMK AO2 SLP206 T02330200 58002
 
KESN - Easton - 63 miles SE
Updated: Fri, 08/01/2014 5:51 AM
Clear
Clear
 Wind from calm
Wind: Calm
Temperature: 73°F
Dew Point: 73°F
Humidity: 100%
Barometer: 30.19 inHg
Clouds: Clear
Visibility: 7 miles
2014/08/01 09:51 KESN 010951Z AUTO 00000KT 7SM CLR 23/23 A3019 RMK AO2 T02250225
KSBY - Salisbury - 112 miles SE
Updated: Fri, 08/01/2014 4:54 AM
Clear
Clear
 Wind from calm
Wind: Calm
Temperature: 70°F
Dew Point: 64°F
Humidity: 83%
Barometer: 30.16 inHg
Clouds: Clear
Visibility: 7 miles
2014/08/01 08:54 KSBY 010854Z AUTO 00000KT 7SM CLR 21/18 A3016 RMK AO2 SLP215 T02110183 58005